Time;durP1;ratioP1;P1;durP2;ratioP2;P2;SDS_P1;SDS_P2;PMS_P1;PMS_P2;Temp;Humidity;BMP_temperature;BMP_pressure;BME280_temperature;BME280_humidity;BME280_pressure;Samples;Min_cycle;Max_cycle;Signal;HPM_P1;HPM_P2
2023/12/20 00:01:32;;;;;;;10.20;9.80;;;;;;;1.55;96.07;93106.66;5061181;28;20220;-73
2023/12/20 00:03:57;;;;;;;10.27;9.87;;;;;;;1.55;95.26;93091.22;5043423;28;20210;-73
2023/12/20 00:06:23;;;;;;;9.93;9.53;;;;;;;1.67;94.86;93101.63;5042474;28;20190;-71
2023/12/20 00:08:48;;;;;;;9.60;9.20;;;;;;;1.68;94.20;93091.88;5043070;28;20175;-70
2023/12/20 00:11:13;;;;;;;8.80;8.50;;;;;;;1.78;92.60;93083.66;5045309;28;20228;-71
2023/12/20 00:13:39;;;;;;;10.07;9.60;;;;;;;1.76;92.46;93085.66;5034518;28;20446;-71
2023/12/20 00:16:04;;;;;;;10.27;9.67;;;;;;;1.62;94.17;93068.78;5049081;28;20174;-70
2023/12/20 00:18:29;;;;;;;9.97;9.50;;;;;;;1.58;95.22;93080.50;5065242;28;20222;-70
2023/12/20 00:20:55;;;;;;;10.60;10.07;;;;;;;1.59;95.55;93074.34;5064805;28;20233;-70
2023/12/20 00:23:20;;;;;;;10.33;9.93;;;;;;;1.72;93.67;93081.94;5064150;28;20230;-71
2023/12/20 00:25:46;;;;;;;12.07;11.47;;;;;;;1.60;93.28;93081.84;5067514;28;20189;-70
2023/12/20 00:28:11;;;;;;;11.20;10.60;;;;;;;1.50;94.78;93066.13;5080151;28;20221;-70
2023/12/20 00:30:36;;;;;;;10.33;9.47;;;;;;;1.55;95.75;93074.00;5059260;28;20190;-70
2023/12/20 00:33:02;;;;;;;9.17;8.73;;;;;;;1.33;96.20;93052.25;5052224;28;20218;-75
2023/12/20 00:35:27;;;;;;;10.93;10.53;;;;;;;1.60;95.30;93068.22;5036566;28;20190;-73
2023/12/20 00:37:53;;;;;;;11.67;11.17;;;;;;;1.57;94.29;93056.56;5066536;28;20221;-74
2023/12/20 00:40:18;;;;;;;10.47;9.97;;;;;;;1.58;94.83;93053.00;5065600;28;20224;-74
2023/12/20 00:42:43;;;;;;;12.07;11.10;;;;;;;1.52;94.29;93051.28;5045773;28;20217;-74
2023/12/20 00:45:09;;;;;;;12.13;11.40;;;;;;;1.47;96.31;93040.84;5045819;28;20195;-74
2023/12/20 00:47:34;;;;;;;12.13;11.07;;;;;;;1.51;96.26;93036.03;5046318;28;20263;-74
2023/12/20 00:50:00;;;;;;;11.87;11.07;;;;;;;1.37;95.70;93021.75;5052537;28;20190;-74
2023/12/20 00:52:25;;;;;;;12.47;11.67;;;;;;;1.42;96.81;93040.69;5046261;28;20315;-74
2023/12/20 00:54:51;;;;;;;13.10;12.23;;;;;;;1.51;97.82;93034.25;5038378;28;20179;-74
2023/12/20 00:57:16;;;;;;;11.03;10.43;;;;;;;1.71;94.92;93036.66;5047330;28;20226;-74
2023/12/20 00:59:42;;;;;;;11.30;10.60;;;;;;;1.51;94.36;93036.84;5065014;28;20174;-74
2023/12/20 01:02:08;;;;;;;12.50;11.77;;;;;;;1.33;95.78;93016.25;5046799;28;20302;-74
2023/12/20 01:04:34;;;;;;;11.87;11.23;;;;;;;1.43;96.28;93029.38;5052738;28;20264;-74
2023/12/20 01:06:59;;;;;;;12.17;11.37;;;;;;;1.40;96.96;93023.91;5056436;28;20233;-74
2023/12/20 01:09:26;;;;;;;10.30;9.57;;;;;;;1.32;97.62;93022.38;5072788;28;20209;-74
2023/12/20 01:11:52;;;;;;;12.67;11.73;;;;;;;1.37;97.50;93016.63;5058782;28;20230;-74
2023/12/20 01:14:17;;;;;;;10.83;10.30;;;;;;;1.26;97.00;93007.78;5059591;28;20217;-74
2023/12/20 01:16:43;;;;;;;9.80;9.40;;;;;;;1.24;97.07;93014.97;5064175;28;20217;-74
2023/12/20 01:19:08;;;;;;;10.50;10.00;;;;;;;1.32;95.77;93011.31;5061007;28;20195;-74
2023/12/20 01:21:34;;;;;;;11.23;10.73;;;;;;;1.39;94.42;93017.97;5065074;28;20211;-74
2023/12/20 01:23:59;;;;;;;12.50;11.70;;;;;;;1.39;94.02;92999.97;5067936;28;20221;-74
2023/12/20 01:26:24;;;;;;;11.67;10.97;;;;;;;1.39;93.34;92991.44;5073129;28;20181;-74
2023/12/20 01:28:49;;;;;;;11.20;10.57;;;;;;;1.09;96.24;92965.66;5072831;28;20217;-74
2023/12/20 01:31:15;;;;;;;13.17;12.23;;;;;;;1.16;97.57;92981.81;5066320;28;20204;-73
2023/12/20 01:33:40;;;;;;;11.77;11.03;;;;;;;1.20;97.70;92992.44;5068299;28;20224;-74
2023/12/20 01:36:06;;;;;;;11.53;10.67;;;;;;;1.17;97.49;92988.50;5065298;28;20280;-75
2023/12/20 01:38:32;;;;;;;12.37;11.53;;;;;;;1.27;98.26;92988.81;5062005;28;20244;-74
2023/12/20 01:40:57;;;;;;;11.50;10.80;;;;;;;1.32;98.82;92975.31;5066941;28;20196;-74
2023/12/20 01:43:23;;;;;;;10.77;10.27;;;;;;;1.22;98.71;92970.66;5082034;28;20253;-74
2023/12/20 01:45:48;;;;;;;12.20;11.60;;;;;;;1.34;97.20;92971.53;5065631;28;20192;-74
2023/12/20 01:48:15;;;;;;;11.03;10.43;;;;;;;1.32;96.22;92970.94;5064205;28;20246;-74
2023/12/20 01:50:43;;;;;;;11.77;11.07;;;;;;;1.29;95.78;92952.59;5058883;28;20202;-74
2023/12/20 01:53:10;;;;;;;11.77;10.97;;;;;;;1.34;94.80;92963.00;5063912;28;20214;-74
2023/12/20 01:55:39;;;;;;;11.87;11.27;;;;;;;1.27;96.32;92954.59;5065559;28;20245;-74
2023/12/20 01:58:05;;;;;;;17.40;15.57;;;;;;;1.30;95.09;92949.03;5057798;28;20240;-74
2023/12/20 02:00:31;;;;;;;29.23;19.67;;;;;;;1.14;94.83;92932.38;5063183;28;20194;-74
2023/12/20 02:03:00;;;;;;;29.30;21.00;;;;;;;1.23;96.70;92943.94;5048916;28;20310;-74
2023/12/20 02:05:27;;;;;;;27.67;20.57;;;;;;;1.19;97.15;92939.44;5051845;28;20179;-74
2023/12/20 02:07:53;;;;;;;39.43;25.53;;;;;;;1.38;95.87;92943.59;5041610;28;20341;-74
2023/12/20 02:10:18;;;;;;;34.50;24.47;;;;;;;1.29;94.60;92940.50;5043513;28;20187;-74
2023/12/20 02:12:43;;;;;;;32.03;22.30;;;;;;;1.32;94.26;92929.78;5047591;28;20233;-74
2023/12/20 02:15:09;;;;;;;29.77;22.77;;;;;;;1.30;95.85;92931.03;5051470;28;20182;-74
2023/12/20 02:17:37;;;;;;;23.83;21.20;;;;;;;1.17;98.11;92918.28;5041861;28;20238;-74
2023/12/20 02:20:03;;;;;;;16.70;15.17;;;;;;;1.27;97.36;92929.69;5044602;28;20233;-74
2023/12/20 02:22:28;;;;;;;13.13;12.13;;;;;;;1.22;95.90;92929.53;5050622;28;20241;-74
2023/12/20 02:24:53;;;;;;;13.50;12.30;;;;;;;1.18;96.34;92930.94;5060878;28;20220;-74
2023/12/20 02:27:19;;;;;;;14.10;13.00;;;;;;;1.07;96.97;92926.53;5068964;28;20233;-74
2023/12/20 02:29:47;;;;;;;13.17;12.27;;;;;;;1.20;96.10;92925.56;5074496;28;20193;-74
2023/12/20 02:32:12;;;;;;;13.03;11.93;;;;;;;1.12;96.14;92923.31;5063185;28;20285;-75
2023/12/20 02:34:38;;;;;;;12.77;11.77;;;;;;;1.04;98.02;92911.50;5070964;28;20181;-74
2023/12/20 02:37:03;;;;;;;13.23;12.27;;;;;;;1.07;98.00;92916.25;5070084;28;20229;-74
2023/12/20 02:39:28;;;;;;;13.43;12.30;;;;;;;1.00;99.18;92901.88;5066639;28;20189;-74
2023/12/20 02:41:54;;;;;;;12.47;11.67;;;;;;;0.97;98.73;92904.88;5070318;28;20230;-74
2023/12/20 02:44:19;;;;;;;13.30;12.37;;;;;;;1.07;97.96;92895.69;5070538;28;20227;-74
2023/12/20 02:46:44;;;;;;;14.10;12.97;;;;;;;1.08;97.87;92901.59;5066391;28;20232;-74
2023/12/20 02:49:10;;;;;;;14.23;13.03;;;;;;;1.08;98.95;92896.44;5070116;28;20302;-73
2023/12/20 02:51:38;;;;;;;14.70;13.50;;;;;;;1.03;98.56;92893.72;5064090;28;20177;-74
2023/12/20 02:54:04;;;;;;;15.43;14.20;;;;;;;1.11;98.47;92894.25;5066351;28;20201;-74
2023/12/20 02:56:29;;;;;;;15.67;14.40;;;;;;;1.30;96.57;92905.31;5064000;28;20200;-73
2023/12/20 02:58:54;;;;;;;17.67;16.07;;;;;;;1.21;96.70;92902.25;5039455;28;20217;-74
2023/12/20 03:01:20;;;;;;;17.93;16.33;;;;;;;1.02;97.98;92882.69;5049400;28;20201;-73
2023/12/20 03:03:45;;;;;;;18.53;16.73;;;;;;;1.15;98.79;92892.81;5049561;28;20220;-75
2023/12/20 03:06:10;;;;;;;15.57;14.07;;;;;;;1.15;97.41;92889.47;5049149;28;20220;-75
2023/12/20 03:08:36;;;;;;;14.33;13.20;;;;;;;1.37;96.05;92901.66;5073510;28;20263;-75
2023/12/20 03:11:01;;;;;;;14.40;13.23;;;;;;;1.29;96.14;92893.47;5069385;28;20174;-76
2023/12/20 03:13:26;;;;;;;15.67;14.17;;;;;;;1.24;97.97;92888.97;5043217;28;20249;-75
2023/12/20 03:15:52;;;;;;;15.37;14.07;;;;;;;1.09;99.13;92891.09;5043431;28;20182;-74
2023/12/20 03:18:18;;;;;;;14.13;12.93;;;;;;;1.21;97.52;92894.53;5048732;28;20214;-76
2023/12/20 03:20:43;;;;;;;18.17;16.43;;;;;;;0.99;96.97;92885.69;5045645;28;20218;-76
2023/12/20 03:23:09;;;;;;;15.97;14.67;;;;;;;1.09;98.61;92898.81;5041658;28;20226;-76
2023/12/20 03:25:34;;;;;;;14.57;13.30;;;;;;;1.06;99.39;92895.91;5047351;28;20228;-75
2023/12/20 03:28:00;;;;;;;15.87;14.53;;;;;;;0.97;100.00;92889.44;5039217;28;20221;-75
2023/12/20 03:30:25;;;;;;;15.33;14.03;;;;;;;0.94;99.76;92882.16;5046858;28;20178;-76
2023/12/20 03:32:51;;;;;;;14.57;13.57;;;;;;;0.88;99.15;92881.25;5046566;28;20226;-74
2023/12/20 03:35:16;;;;;;;13.93;12.93;;;;;;;0.90;99.91;92874.09;5047138;28;20270;-75
2023/12/20 03:37:42;;;;;;;14.60;13.50;;;;;;;0.96;100.00;92862.19;5049506;28;20226;-75
2023/12/20 03:40:07;;;;;;;15.43;14.23;;;;;;;1.09;98.99;92873.09;5043961;28;20202;-75
2023/12/20 03:42:33;;;;;;;15.67;14.20;;;;;;;0.94;98.43;92875.25;5045865;28;20226;-75
2023/12/20 03:44:58;;;;;;;18.50;16.70;;;;;;;0.79;99.52;92877.41;5047235;28;21061;-75
2023/12/20 03:47:23;;;;;;;18.93;16.83;;;;;;;0.77;100.00;92876.03;5041829;28;20234;-75
2023/12/20 03:49:49;;;;;;;19.83;17.77;;;;;;;0.85;99.64;92879.09;5048529;28;20190;-75
2023/12/20 03:52:14;;;;;;;19.33;17.37;;;;;;;0.79;99.22;92861.19;5049677;28;20232;-75
2023/12/20 03:54:42;;;;;;;26.83;21.53;;;;;;;0.89;100.00;92867.38;5044404;28;20197;-75
2023/12/20 03:57:07;;;;;;;25.47;19.93;;;;;;;0.70;99.08;92863.22;5042041;28;20226;-75
2023/12/20 03:59:36;;;;;;;21.50;19.27;;;;;;;0.74;99.13;92869.53;5046946;28;20193;-75
2023/12/20 04:02:02;;;;;;;21.97;19.70;;;;;;;0.58;99.77;92853.88;5048365;28;20230;-75
2023/12/20 04:04:27;;;;;;;23.67;20.17;;;;;;;0.62;100.00;92850.69;5043856;28;20181;-75
2023/12/20 04:06:52;;;;;;;25.53;20.20;;;;;;;0.61;100.00;92838.06;5041906;28;20234;-76
2023/12/20 04:09:18;;;;;;;22.03;19.43;;;;;;;0.63;100.00;92841.97;5048656;28;20232;-75
2023/12/20 04:11:43;;;;;;;24.10;19.23;;;;;;;0.64;99.22;92850.47;5048937;28;20245;-75
2023/12/20 04:14:08;;;;;;;21.27;19.00;;;;;;;0.64;100.00;92853.03;5046690;28;20195;-75
2023/12/20 04:16:34;;;;;;;23.20;20.70;;;;;;;0.55;100.00;92824.28;5039583;28;20198;-75
2023/12/20 04:19:00;;;;;;;21.67;19.17;;;;;;;0.52;100.00;92834.97;5045952;28;20191;-75
2023/12/20 04:21:25;;;;;;;22.33;19.77;;;;;;;0.59;100.00;92840.03;5045286;28;20236;-76
2023/12/20 04:23:50;;;;;;;22.17;19.73;;;;;;;0.54;100.00;92843.25;5051942;28;20226;-75
2023/12/20 04:26:16;;;;;;;20.00;18.03;;;;;;;0.54;100.00;92834.75;5039064;28;20179;-75
2023/12/20 04:28:42;;;;;;;20.47;16.60;;;;;;;0.55;100.00;92837.13;5070934;28;20225;-75
2023/12/20 04:31:07;;;;;;;18.57;16.73;;;;;;;0.54;100.00;92815.00;5072909;28;20185;-74
2023/12/20 04:33:32;;;;;;;17.50;15.77;;;;;;;0.74;100.00;92831.00;5070869;28;20237;-74
2023/12/20 04:35:58;;;;;;;16.03;14.43;;;;;;;0.57;100.00;92822.28;5070813;28;20204;-74
2023/12/20 04:38:23;;;;;;;16.00;14.60;;;;;;;0.57;100.00;92813.78;5052178;28;20249;-76
2023/12/20 04:40:48;;;;;;;14.17;13.07;;;;;;;0.76;99.81;92826.44;5039943;28;20198;-75
2023/12/20 04:43:14;;;;;;;13.73;12.70;;;;;;;0.81;100.00;92816.28;5051596;28;20241;-76
2023/12/20 04:45:39;;;;;;;14.27;13.10;;;;;;;0.76;99.26;92821.31;5047023;28;20197;-76
2023/12/20 04:48:05;;;;;;;14.50;13.30;;;;;;;0.84;99.78;92812.53;5047626;28;20236;-72
2023/12/20 04:50:31;;;;;;;15.00;13.90;;;;;;;0.73;99.97;92795.25;5049073;28;20261;-72
2023/12/20 04:52:56;;;;;;;13.37;12.40;;;;;;;0.86;98.52;92821.56;5062465;28;20299;-72
2023/12/20 04:55:22;;;;;;;14.10;13.20;;;;;;;0.83;99.02;92822.00;5074794;28;20203;-73
2023/12/20 04:57:47;;;;;;;12.83;12.03;;;;;;;0.84;98.85;92813.28;5066909;28;20221;-73
2023/12/20 05:00:15;;;;;;;12.20;11.50;;;;;;;0.73;98.22;92808.09;5066292;28;20190;-73
2023/12/20 05:02:41;;;;;;;13.40;12.57;;;;;;;0.86;97.96;92818.19;5085204;28;20236;-73
2023/12/20 05:05:06;;;;;;;14.17;13.07;;;;;;;0.84;98.60;92808.16;5070127;28;20189;-71
2023/12/20 05:07:32;;;;;;;14.13;13.13;;;;;;;1.00;98.91;92809.34;5063093;28;20251;-71
2023/12/20 05:09:57;;;;;;;14.10;13.17;;;;;;;1.00;98.68;92802.44;5070651;28;20176;-71
2023/12/20 05:12:23;;;;;;;12.47;11.77;;;;;;;0.76;98.08;92779.41;5069836;28;20216;-71
2023/12/20 05:14:48;;;;;;;14.63;13.47;;;;;;;0.90;97.26;92791.84;5071256;28;20237;-74
2023/12/20 05:17:13;;;;;;;14.57;13.47;;;;;;;1.02;97.86;92800.44;5064628;28;20229;-72
2023/12/20 05:19:39;;;;;;;12.20;11.40;;;;;;;0.82;98.44;92810.16;5087262;28;20213;-74
2023/12/20 05:22:04;;;;;;;14.77;13.77;;;;;;;0.85;97.83;92803.78;5069618;28;20312;-74
2023/12/20 05:24:29;;;;;;;15.57;14.37;;;;;;;0.76;97.97;92792.25;5068405;28;20212;-73
2023/12/20 05:26:55;;;;;;;14.27;13.23;;;;;;;0.62;99.29;92777.97;5068006;28;20232;-73
2023/12/20 05:29:20;;;;;;;15.07;13.80;;;;;;;0.63;99.07;92785.47;5069686;28;20197;-76
2023/12/20 05:31:46;;;;;;;15.57;14.07;;;;;;;0.62;99.64;92781.34;5068716;28;20295;-77
2023/12/20 05:34:11;;;;;;;14.50;13.40;;;;;;;0.81;100.00;92779.53;5070466;28;20201;-76
2023/12/20 05:36:37;;;;;;;13.97;13.07;;;;;;;0.77;99.59;92776.63;5066190;28;20229;-76
2023/12/20 05:39:05;;;;;;;14.07;13.07;;;;;;;0.80;99.37;92773.63;5049040;28;20193;-74
2023/12/20 05:41:31;;;;;;;14.87;13.63;;;;;;;0.85;98.30;92781.47;5059426;28;20251;-74
2023/12/20 05:43:57;;;;;;;16.57;14.83;;;;;;;0.73;98.46;92770.31;5052230;28;21057;-74
2023/12/20 05:46:23;;;;;;;17.23;15.47;;;;;;;1.04;98.74;92783.00;5052380;28;20197;-74
2023/12/20 05:48:49;;;;;;;17.17;15.93;;;;;;;0.84;98.34;92782.44;5070499;28;20178;-73
2023/12/20 05:51:14;;;;;;;19.87;16.93;;;;;;;0.82;98.14;92779.31;5068178;28;20189;-74
2023/12/20 05:53:40;;;;;;;19.27;16.63;;;;;;;0.57;99.77;92770.91;5059175;28;20256;-73
2023/12/20 05:56:05;;;;;;;28.87;20.93;;;;;;;0.75;99.28;92773.47;5068500;28;20208;-74
2023/12/20 05:58:32;;;;;;;25.30;21.70;;;;;;;0.73;98.45;92765.19;5077844;28;20292;-73
2023/12/20 06:00:57;;;;;;;31.43;24.73;;;;;;;0.57;100.00;92760.66;5069775;28;20273;-74
2023/12/20 06:03:23;;;;;;;23.33;20.83;;;;;;;0.61;100.00;92751.50;5067862;28;20225;-73
2023/12/20 06:05:48;;;;;;;30.97;21.00;;;;;;;0.63;100.00;92757.22;5069777;28;20216;-74
2023/12/20 06:08:14;;;;;;;27.27;23.00;;;;;;;0.69;100.00;92763.25;5069559;28;20283;-73
2023/12/20 06:10:40;;;;;;;32.67;22.87;;;;;;;0.63;100.00;92757.22;5071185;28;20193;-74
2023/12/20 06:13:06;;;;;;;29.97;23.43;;;;;;;0.64;100.00;92753.63;5078161;28;20225;-73
2023/12/20 06:15:32;;;;;;;24.73;19.27;;;;;;;0.76;99.76;92754.50;5067194;28;20186;-73
2023/12/20 06:17:57;;;;;;;20.00;16.63;;;;;;;0.76;98.93;92764.00;5068171;28;20963;-73
2023/12/20 06:20:23;;;;;;;19.20;17.30;;;;;;;0.37;99.87;92719.00;5078853;28;20224;-73
2023/12/20 06:22:48;;;;;;;17.87;16.07;;;;;;;0.66;100.00;92756.78;5062176;28;20229;-73
2023/12/20 06:25:14;;;;;;;23.10;17.23;;;;;;;0.81;98.63;92759.75;5068990;28;20253;-73
2023/12/20 06:27:40;;;;;;;18.33;16.40;;;;;;;0.76;97.95;92767.34;5070620;28;20257;-73
2023/12/20 06:30:07;;;;;;;18.73;16.83;;;;;;;0.83;98.72;92752.63;5069301;28;20211;-74
2023/12/20 06:32:34;;;;;;;22.93;17.27;;;;;;;0.79;97.92;92763.56;5059264;28;20226;-73
2023/12/20 06:34:59;;;;;;;20.30;18.13;;;;;;;0.74;98.66;92768.53;5049954;28;20190;-73
2023/12/20 06:37:24;;;;;;;22.23;17.33;;;;;;;0.65;98.57;92732.09;5049737;28;20226;-74
2023/12/20 06:39:50;;;;;;;29.67;19.30;;;;;;;0.77;99.25;92745.00;5044095;28;20319;-74
2023/12/20 06:42:15;;;;;;;27.90;18.60;;;;;;;0.89;98.45;92746.63;5043244;28;20233;-71
2023/12/20 06:44:41;;;;;;;26.07;17.57;;;;;;;0.93;98.54;92755.47;5043608;28;20198;-74
2023/12/20 06:47:08;;;;;;;27.30;19.17;;;;;;;1.08;98.63;92739.66;5054773;28;20225;-73
2023/12/20 06:49:33;;;;;;;24.97;18.60;;;;;;;1.11;96.97;92750.28;5069442;28;20257;-74
2023/12/20 06:51:58;;;;;;;27.50;19.40;;;;;;;0.95;98.25;92753.47;5062176;28;20248;-74
2023/12/20 06:54:24;;;;;;;26.73;18.57;;;;;;;1.15;98.60;92748.84;5067545;28;20269;-74
2023/12/20 06:56:49;;;;;;;22.47;18.57;;;;;;;1.26;98.49;92750.66;5066722;28;20229;-74
2023/12/20 06:59:15;;;;;;;24.43;16.70;;;;;;;1.16;98.63;92747.06;5059747;28;20242;-74
2023/12/20 07:01:41;;;;;;;17.67;15.53;;;;;;;1.14;99.76;92737.00;5064352;28;20271;-74
2023/12/20 07:04:06;;;;;;;24.53;16.63;;;;;;;1.07;98.82;92741.47;5046770;28;20249;-74
2023/12/20 07:06:31;;;;;;;22.80;17.10;;;;;;;1.36;98.92;92738.09;5049527;28;20190;-74
2023/12/20 07:08:57;;;;;;;21.73;17.43;;;;;;;1.65;96.80;92733.88;5041621;28;20213;-74
2023/12/20 07:11:23;;;;;;;18.17;16.37;;;;;;;1.76;96.59;92740.06;5048613;28;20305;-74
2023/12/20 07:13:49;;;;;;;29.43;24.13;;;;;;;2.08;95.35;92731.81;5045811;28;20191;-74
2023/12/20 07:16:14;;;;;;;37.67;24.13;;;;;;;1.67;96.58;92717.22;5040536;28;20258;-74
2023/12/20 07:18:40;;;;;;;36.33;26.70;;;;;;;1.99;95.87;92709.19;5048574;28;20218;-75
2023/12/20 07:21:07;;;;;;;28.00;24.00;;;;;;;2.19;94.67;92728.44;5049514;28;20229;-74
2023/12/20 07:23:33;;;;;;;33.67;27.00;;;;;;;2.01;95.48;92727.78;5045010;28;20661;-74
2023/12/20 07:25:58;;;;;;;42.27;28.40;;;;;;;2.17;95.74;92715.00;5048086;28;20184;-74
2023/12/20 07:28:24;;;;;;;33.23;26.00;;;;;;;2.08;95.78;92718.13;5031850;28;20302;-74
2023/12/20 07:30:50;;;;;;;42.77;29.73;;;;;;;1.82;96.53;92716.00;5037677;28;20182;-74
2023/12/20 07:33:15;;;;;;;40.00;28.17;;;;;;;2.24;96.38;92715.66;5048492;28;20258;-74
2023/12/20 07:35:41;;;;;;;47.83;28.63;;;;;;;2.32;95.52;92693.94;5049636;28;20220;-74
2023/12/20 07:38:06;;;;;;;44.37;27.37;;;;;;;2.42;95.29;92714.75;5046280;28;20301;-74
2023/12/20 07:40:31;;;;;;;40.03;28.80;;;;;;;2.32;96.59;92711.97;5048020;28;20202;-74
2023/12/20 07:42:58;;;;;;;39.13;28.57;;;;;;;2.53;95.66;92711.38;5047269;28;20275;-74
2023/12/20 07:45:23;;;;;;;35.93;28.07;;;;;;;2.56;95.41;92724.59;5049297;28;20182;-75
2023/12/20 07:47:50;;;;;;;39.60;28.97;;;;;;;2.23;95.03;92703.00;5042813;28;20218;-74
2023/12/20 07:50:15;;;;;;;42.57;27.43;;;;;;;2.49;95.16;92700.72;5048578;28;20178;-76
2023/12/20 07:52:40;;;;;;;42.50;28.77;;;;;;;2.43;94.55;92716.31;5057986;28;20301;-74
2023/12/20 07:55:06;;;;;;;41.50;27.93;;;;;;;2.48;94.50;92675.19;5067647;28;20205;-74
2023/12/20 07:57:32;;;;;;;33.23;25.60;;;;;;;2.98;93.15;92712.25;5064723;28;20297;-74
2023/12/20 07:59:57;;;;;;;42.93;27.63;;;;;;;2.77;93.25;92718.81;5065187;28;20208;-75
2023/12/20 08:02:22;;;;;;;48.83;31.37;;;;;;;3.02;92.79;92714.13;5061161;28;20243;-74
2023/12/20 08:04:48;;;;;;;45.90;33.13;;;;;;;2.93;92.38;92704.41;5064300;28;20201;-74
2023/12/20 08:07:13;;;;;;;44.10;31.27;;;;;;;3.20;91.08;92713.16;5067961;28;20233;-74
2023/12/20 08:09:38;;;;;;;53.47;36.20;;;;;;;3.09;89.71;92706.25;5066434;28;20193;-74
2023/12/20 08:12:04;;;;;;;49.53;38.73;;;;;;;2.67;92.18;92702.38;5060229;28;20253;-74
2023/12/20 08:14:29;;;;;;;54.63;37.83;;;;;;;3.11;91.46;92688.78;5045242;28;20268;-74
2023/12/20 08:16:55;;;;;;;53.07;38.63;;;;;;;3.62;89.98;92696.34;5049846;28;20793;-76
2023/12/20 08:19:20;;;;;;;60.50;39.97;;;;;;;3.70;89.00;92702.91;5061145;28;20189;-77
2023/12/20 08:21:45;;;;;;;61.07;39.77;;;;;;;3.78;88.98;92692.19;5060301;28;20289;-78
2023/12/20 08:24:11;;;;;;;63.70;39.93;;;;;;;3.80;89.06;92698.69;5046306;28;20236;-77
2023/12/20 08:26:36;;;;;;;61.10;40.07;;;;;;;3.80;89.54;92703.84;5044474;28;20202;-75
2023/12/20 08:29:01;;;;;;;55.20;38.50;;;;;;;3.97;89.00;92678.78;5066011;28;20239;-76
2023/12/20 08:31:27;;;;;;;57.80;40.33;;;;;;;4.13;88.06;92682.38;5058093;28;20210;-77
2023/12/20 08:33:53;;;;;;;54.37;40.30;;;;;;;3.81;89.08;92677.03;5047923;28;20182;-75
2023/12/20 08:36:21;;;;;;;63.07;40.93;;;;;;;3.89;89.06;92655.94;5039971;28;20221;-74
2023/12/20 08:38:46;;;;;;;68.30;45.30;;;;;;;3.24;90.21;92655.72;5041554;28;20201;-78
2023/12/20 08:41:12;;;;;;;62.17;42.67;;;;;;;3.31;92.48;92664.09;5042076;28;20217;-76
2023/12/20 08:43:40;;;;;;;74.43;48.13;;;;;;;3.38;91.03;92669.09;5046988;28;20226;-74
2023/12/20 08:46:05;;;;;;;86.13;50.43;;;;;;;3.28;92.74;92669.72;5045465;28;20179;-75
2023/12/20 08:48:30;;;;;;;89.60;52.97;;;;;;;3.24;91.16;92670.41;5075767;28;20231;-73
2023/12/20 08:50:56;;;;;;;80.70;52.43;;;;;;;2.95;92.38;92666.31;5064688;28;20213;-73
2023/12/20 08:53:21;;;;;;;83.90;51.43;;;;;;;2.56;93.98;92664.53;5047895;28;20222;-73
2023/12/20 08:55:47;;;;;;;87.33;52.50;;;;;;;3.29;92.36;92660.97;5043002;28;20216;-73
2023/12/20 08:58:12;;;;;;;80.40;50.50;;;;;;;3.00;92.11;92662.00;5042649;28;20230;-73
2023/12/20 09:00:38;;;;;;;75.50;53.13;;;;;;;3.57;90.90;92657.53;5046184;28;20190;-73
2023/12/20 09:03:04;;;;;;;86.67;54.00;;;;;;;3.64;88.29;92653.03;5061131;28;20252;-73
2023/12/20 09:05:30;;;;;;;90.63;57.07;;;;;;;3.55;88.95;92649.25;5070312;28;20196;-73
2023/12/20 09:07:55;;;;;;;86.17;55.27;;;;;;;3.91;88.38;92642.81;5049971;28;20246;-73
2023/12/20 09:10:22;;;;;;;88.40;55.13;;;;;;;3.81;88.54;92630.56;5046880;28;20186;-73
2023/12/20 09:12:48;;;;;;;86.13;57.23;;;;;;;4.13;88.13;92622.97;5050279;28;20257;-74
2023/12/20 09:15:14;;;;;;;94.53;58.43;;;;;;;3.74;88.76;92622.19;5045494;28;20225;-73
2023/12/20 09:17:39;;;;;;;84.67;55.13;;;;;;;4.14;87.78;92594.31;5049380;28;20272;-74
2023/12/20 09:20:07;;;;;;;91.10;59.17;;;;;;;4.26;87.25;92595.00;5051261;28;20221;-73
2023/12/20 09:22:33;;;;;;;96.57;61.07;;;;;;;4.10;87.91;92597.59;5043094;28;20233;-73
2023/12/20 09:24:58;;;;;;;90.83;55.00;;;;;;;4.43;85.90;92590.53;5041649;28;20186;-74
2023/12/20 09:27:24;;;;;;;86.73;56.10;;;;;;;4.42;86.73;92588.19;5050613;28;20298;-74
2023/12/20 09:29:49;;;;;;;94.57;56.53;;;;;;;4.33;87.36;92585.25;5044777;28;20178;-74
2023/12/20 09:32:15;;;;;;;91.40;57.43;;;;;;;4.44;88.65;92568.84;5048356;28;20233;-74
2023/12/20 09:34:41;;;;;;;85.63;55.83;;;;;;;4.96;85.08;92569.09;5050606;28;20190;-74
2023/12/20 09:37:07;;;;;;;87.33;56.17;;;;;;;4.18;86.96;92564.41;5050514;28;20301;-74
2023/12/20 09:39:33;;;;;;;88.53;58.17;;;;;;;3.69;89.27;92572.28;5047610;28;20190;-74
2023/12/20 09:42:05;;;;;;;88.77;56.83;;;;;;;4.49;87.85;92555.97;5040794;28;21142;-74
2023/12/20 09:44:32;;;;;;;86.20;57.43;;;;;;;4.90;84.22;92550.16;5048819;28;20660;-74
2023/12/20 09:46:58;;;;;;;86.47;57.47;;;;;;;4.20;88.49;92557.19;5046715;28;20225;-74
2023/12/20 09:49:27;;;;;;;97.33;53.50;;;;;;;4.85;85.51;92537.19;5036265;28;20190;-73
2023/12/20 09:51:54;;;;;;;91.37;59.97;;;;;;;4.27;87.31;92544.09;5047828;28;20277;-75
2023/12/20 09:54:20;;;;;;;99.50;57.60;;;;;;;4.27;89.43;92539.72;5043331;28;20270;-74
2023/12/20 09:56:46;;;;;;;97.13;56.17;;;;;;;5.05;85.02;92540.97;5051123;28;20253;-74
2023/12/20 09:59:12;;;;;;;90.73;58.57;;;;;;;4.36;87.11;92542.63;5048467;28;20190;-73
2023/12/20 10:01:39;;;;;;;90.67;56.93;;;;;;;4.74;87.48;92535.53;5047221;28;20229;-71
2023/12/20 10:04:12;;;;;;;83.43;54.73;;;;;;;5.33;83.35;92528.50;5047653;28;20198;-73
2023/12/20 10:06:44;;;;;;;86.03;53.57;;;;;;;4.66;85.11;92510.13;5048166;28;20259;-74
2023/12/20 10:09:11;;;;;;;78.70;48.60;;;;;;;4.51;86.36;92511.78;5050378;28;20209;-73
2023/12/20 10:11:37;;;;;;;76.33;47.03;;;;;;;3.80;89.15;92533.44;5053689;28;20185;-74
2023/12/20 10:14:04;;;;;;;80.20;51.53;;;;;;;3.98;91.38;92499.59;5036077;28;20225;-75
2023/12/20 10:16:30;;;;;;;72.33;47.33;;;;;;;4.79;86.86;92503.78;5040977;28;20198;-74
2023/12/20 10:18:56;;;;;;;77.03;50.20;;;;;;;3.82;90.00;92515.13;5043325;28;20182;-74
2023/12/20 10:21:22;;;;;;;76.73;51.57;;;;;;;4.56;87.67;92499.69;5047494;28;20233;-73
2023/12/20 10:23:52;;;;;;;84.93;53.43;;;;;;;4.60;86.21;92482.69;5047680;28;20222;-74
2023/12/20 10:26:21;;;;;;;84.20;53.47;;;;;;;3.71;90.53;92503.91;5045665;28;20182;-73
2023/12/20 10:28:50;;;;;;;87.60;52.33;;;;;;;4.12;91.32;92490.47;5050557;28;20206;-73
2023/12/20 10:31:34;;;;;;;82.00;51.53;;;;;;;4.26;87.87;92450.31;5050659;28;20311;-74
2023/12/20 10:34:01;;;;;;;90.27;52.90;;;;;;;3.83;89.54;92478.00;5044847;28;21005;-74
2023/12/20 10:36:29;;;;;;;85.97;53.10;;;;;;;4.29;90.20;92472.28;5049876;28;20761;-74
2023/12/20 10:38:57;;;;;;;83.33;53.77;;;;;;;4.56;88.85;92471.25;5071929;28;20185;-74
2023/12/20 10:41:30;;;;;;;115.10;61.83;;;;;;;3.69;92.39;92479.38;5064035;28;20206;-73
2023/12/20 10:44:04;;;;;;;91.23;56.83;;;;;;;3.99;91.71;92470.16;5048005;28;20210;-74
2023/12/20 10:46:32;;;;;;;89.17;55.87;;;;;;;4.46;89.81;92460.84;5046301;28;20186;-76
2023/12/20 10:48:57;;;;;;;85.83;51.40;;;;;;;4.57;87.49;92421.13;5037728;28;20194;-74
2023/12/20 10:51:26;;;;;;;96.23;53.40;;;;;;;4.38;89.70;92453.53;5042183;28;20190;-75
2023/12/20 10:53:53;;;;;;;87.13;50.97;;;;;;;4.15;91.59;92451.22;5044881;28;20210;-74
2023/12/20 10:56:19;;;;;;;92.33;53.13;;;;;;;4.65;89.65;92451.66;5044579;28;20202;-74
2023/12/20 10:58:46;;;;;;;94.47;55.17;;;;;;;4.31;90.20;92439.25;5059372;28;20198;-75
2023/12/20 11:01:17;;;;;;;85.73;53.17;;;;;;;4.69;89.36;92431.28;5064189;28;20185;-74
2023/12/20 11:03:48;;;;;;;88.83;53.97;;;;;;;4.83;88.23;92438.38;5038280;28;20249;-77
2023/12/20 11:06:22;;;;;;;93.70;54.37;;;;;;;4.31;91.09;92450.34;5049875;28;20236;-74
2023/12/20 11:08:56;;;;;;;88.97;51.53;;;;;;;4.75;88.87;92415.56;5047161;28;20213;-72
2023/12/20 11:12:09;;;;;;;97.23;55.53;;;;;;;4.53;90.75;92432.19;5048835;28;20198;-71
2023/12/20 11:14:40;;;;;;;98.57;54.33;;;;;;;4.54;91.04;92415.66;5042634;28;20193;-73
2023/12/20 11:17:19;;;;;;;89.33;52.50;;;;;;;4.72;90.67;92423.03;5055471;28;21082;-75
2023/12/20 11:19:57;;;;;;;82.03;51.50;;;;;;;5.03;88.90;92413.69;5065623;28;20259;-74